createdAt,value
2018-12-13T00:00:24.329Z,3.43
2018-12-13T00:02:51.825Z,3.70
2018-12-13T00:05:19.323Z,4.40
2018-12-13T00:07:46.813Z,4.27
2018-12-13T00:10:14.310Z,5.07
2018-12-13T00:12:41.805Z,3.90
2018-12-13T00:15:09.297Z,4.50
2018-12-13T00:17:36.793Z,5.50
2018-12-13T00:20:04.843Z,4.37
2018-12-13T00:22:32.334Z,3.53
2018-12-13T00:24:59.830Z,4.10
2018-12-13T00:27:27.637Z,4.27
2018-12-13T00:29:55.130Z,3.73
2018-12-13T00:32:22.623Z,3.93
2018-12-13T00:34:50.114Z,5.13
2018-12-13T00:37:17.609Z,4.03
2018-12-13T00:39:45.105Z,4.23
2018-12-13T00:42:12.602Z,3.60
2018-12-13T00:44:40.099Z,4.80
2018-12-13T00:47:07.589Z,4.63
2018-12-13T00:49:35.090Z,4.03
2018-12-13T00:52:02.586Z,4.30
2018-12-13T00:54:30.086Z,3.87
2018-12-13T00:56:57.577Z,5.73
2018-12-13T00:59:25.081Z,3.60
2018-12-13T01:01:52.649Z,4.00
2018-12-13T01:04:20.141Z,3.63
2018-12-13T01:06:47.644Z,4.00
2018-12-13T01:09:15.146Z,5.00
2018-12-13T01:11:42.639Z,3.70
2018-12-13T01:14:10.137Z,3.50
2018-12-13T01:16:37.633Z,4.60
2018-12-13T01:19:05.129Z,4.23
2018-12-13T01:21:32.625Z,5.23
2018-12-13T01:24:00.536Z,4.33
2018-12-13T01:26:28.029Z,3.67
2018-12-13T01:28:55.527Z,5.40
2018-12-13T01:31:23.022Z,5.40
2018-12-13T01:33:50.516Z,3.53
2018-12-13T01:36:18.228Z,4.03
2018-12-13T01:38:45.732Z,3.93
2018-12-13T01:41:13.229Z,4.27
2018-12-13T01:43:40.721Z,6.53
2018-12-13T01:46:08.214Z,3.37
2018-12-13T01:48:35.713Z,4.37
2018-12-13T01:51:03.204Z,3.77
2018-12-13T01:53:30.705Z,3.47
2018-12-13T01:55:58.198Z,4.23
2018-12-13T01:58:25.694Z,4.20
2018-12-13T02:00:53.396Z,3.90
2018-12-13T02:03:20.889Z,3.47
2018-12-13T02:05:48.383Z,4.17
2018-12-13T02:08:15.877Z,4.20
2018-12-13T02:10:43.370Z,3.97
2018-12-13T02:13:10.869Z,4.30
2018-12-13T02:15:38.361Z,4.07
2018-12-13T02:18:06.037Z,4.67
2018-12-13T02:20:33.534Z,4.53
2018-12-13T02:23:01.026Z,4.03
2018-12-13T02:25:28.526Z,4.03
2018-12-13T02:27:56.028Z,4.57
2018-12-13T02:30:23.521Z,4.30
2018-12-13T02:32:51.017Z,4.57
2018-12-13T02:35:18.513Z,4.67
2018-12-13T02:37:46.012Z,4.23
2018-12-13T02:40:13.509Z,3.87
2018-12-13T02:42:41.001Z,3.83
2018-12-13T02:45:09.194Z,4.73
2018-12-13T02:47:37.067Z,3.27
2018-12-13T02:50:05.141Z,4.43
2018-12-13T02:52:32.634Z,4.17
2018-12-13T02:55:00.246Z,4.10
2018-12-13T02:57:27.740Z,3.80
2018-12-13T02:59:55.239Z,3.43
2018-12-13T03:02:22.850Z,3.07
2018-12-13T03:04:50.343Z,4.67
2018-12-13T03:07:17.834Z,5.03
2018-12-13T03:09:45.330Z,3.23
2018-12-13T03:12:12.828Z,4.23
2018-12-13T03:14:40.322Z,5.53
2018-12-13T03:17:07.820Z,4.47
2018-12-13T03:19:35.315Z,4.27
2018-12-13T03:22:02.811Z,4.97
2018-12-13T03:24:30.306Z,4.33
2018-12-13T03:26:57.801Z,4.00
2018-12-13T03:29:25.306Z,4.40
2018-12-13T03:31:52.795Z,4.03
2018-12-13T03:34:20.291Z,4.10
2018-12-13T03:36:47.782Z,3.60
2018-12-13T03:39:15.279Z,3.73
2018-12-13T03:41:42.776Z,3.67
2018-12-13T03:44:10.275Z,3.73
2018-12-13T03:46:37.773Z,4.33
2018-12-13T03:49:05.265Z,3.73
2018-12-13T03:51:32.776Z,4.23
2018-12-13T03:54:00.378Z,4.20
2018-12-13T03:56:27.873Z,4.73
2018-12-13T03:58:55.374Z,4.53
2018-12-13T04:01:22.866Z,4.60
2018-12-13T04:03:50.372Z,4.40
2018-12-13T04:06:17.868Z,3.90
2018-12-13T04:08:45.358Z,4.30
2018-12-13T04:11:12.865Z,4.60
2018-12-13T04:13:40.462Z,4.80
2018-12-13T04:16:07.959Z,4.47
2018-12-13T04:18:35.462Z,4.87
2018-12-13T04:21:02.957Z,4.93
2018-12-13T04:23:30.452Z,4.70
2018-12-13T04:25:57.946Z,5.63
2018-12-13T04:28:25.444Z,4.53
2018-12-13T04:30:52.938Z,5.10
2018-12-13T04:33:20.431Z,4.67
2018-12-13T04:35:47.935Z,4.50
2018-12-13T04:38:15.528Z,4.37
2018-12-13T04:40:43.024Z,4.97
2018-12-13T04:43:10.521Z,4.20
2018-12-13T04:45:38.015Z,4.40
2018-12-13T04:48:05.585Z,3.93
2018-12-13T04:50:33.086Z,4.97
2018-12-13T04:53:00.588Z,4.77
2018-12-13T04:55:28.080Z,4.80
2018-12-13T04:57:55.580Z,3.90
2018-12-13T05:00:23.078Z,5.53
2018-12-13T05:02:50.709Z,6.00
2018-12-13T05:05:18.209Z,4.70
2018-12-13T05:07:45.707Z,4.93
2018-12-13T05:13:15.042Z,5.07
2018-12-13T05:15:42.537Z,4.93
2018-12-13T05:18:10.033Z,4.97
2018-12-13T05:20:37.604Z,4.80
2018-12-13T05:23:05.097Z,4.93
2018-12-13T05:25:32.589Z,3.97
2018-12-13T05:28:00.087Z,5.73
2018-12-13T05:30:27.581Z,5.40
2018-12-13T05:32:55.076Z,4.70
2018-12-13T05:35:22.572Z,5.17
2018-12-13T05:37:50.073Z,5.13
2018-12-13T05:40:17.569Z,5.00
2018-12-13T05:42:45.065Z,5.10
2018-12-13T05:45:12.678Z,5.77
2018-12-13T05:47:40.169Z,5.87
2018-12-13T05:50:07.657Z,4.80
2018-12-13T05:52:35.165Z,4.73
2018-12-13T05:55:02.658Z,5.23
2018-12-13T05:57:30.145Z,5.37
2018-12-13T05:59:57.637Z,5.37
2018-12-13T06:02:25.262Z,5.07
2018-12-13T06:04:52.756Z,5.07
2018-12-13T06:07:20.255Z,4.50
2018-12-13T06:09:47.749Z,5.53
2018-12-13T06:12:15.249Z,4.60
2018-12-13T06:14:42.750Z,5.87
2018-12-13T06:17:10.245Z,5.03
2018-12-13T06:19:37.730Z,5.93
2018-12-13T06:22:05.228Z,4.43
2018-12-13T06:24:32.725Z,5.73
2018-12-13T06:27:00.221Z,5.43
2018-12-13T06:29:27.727Z,6.07
2018-12-13T06:31:55.333Z,6.30
2018-12-13T06:34:22.835Z,5.17
2018-12-13T06:36:50.329Z,5.53
2018-12-13T06:39:17.821Z,5.43
2018-12-13T06:41:45.313Z,5.60
2018-12-13T06:44:12.812Z,5.27
2018-12-13T06:46:40.310Z,5.57
2018-12-13T06:49:07.830Z,6.00
2018-12-13T06:51:35.324Z,4.77
2018-12-13T06:54:02.821Z,6.10
2018-12-13T06:56:30.314Z,6.03
2018-12-13T06:58:57.815Z,5.63
2018-12-13T07:01:25.306Z,5.63
2018-12-13T07:03:52.803Z,5.70
2018-12-13T07:06:20.300Z,5.67
2018-12-13T07:08:47.796Z,5.47
2018-12-13T07:11:15.302Z,6.40
2018-12-13T07:13:42.789Z,5.93
2018-12-13T07:16:10.289Z,6.40
2018-12-13T07:18:37.781Z,6.83
2018-12-13T07:21:05.281Z,5.50
2018-12-13T07:23:32.773Z,5.73
2018-12-13T07:26:00.559Z,5.77
2018-12-13T07:28:29.060Z,6.17
2018-12-13T07:30:56.970Z,6.17
2018-12-13T07:33:24.462Z,5.67
2018-12-13T07:35:52.226Z,6.23
2018-12-13T07:38:19.717Z,6.57
2018-12-13T07:40:47.240Z,5.80
2018-12-13T07:43:14.733Z,7.93
2018-12-13T07:45:42.225Z,7.03
2018-12-13T07:48:09.722Z,6.73
2018-12-13T07:50:37.338Z,6.00
2018-12-13T07:53:04.830Z,7.60
2018-12-13T07:55:32.329Z,7.87
2018-12-13T07:57:59.822Z,7.10
2018-12-13T08:00:27.310Z,8.00
2018-12-13T08:02:54.809Z,6.33
2018-12-13T08:05:22.417Z,7.60
2018-12-13T08:07:50.273Z,6.73
2018-12-13T08:10:18.100Z,7.37
2018-12-13T08:12:45.593Z,8.43
2018-12-13T08:15:13.081Z,7.60
2018-12-13T08:17:40.762Z,7.73
2018-12-13T08:20:08.257Z,7.00
2018-12-13T08:22:35.754Z,6.13
2018-12-13T08:25:03.726Z,8.90
2018-12-13T08:27:31.222Z,7.87
2018-12-13T08:29:58.721Z,9.80
2018-12-13T08:32:26.212Z,7.40
2018-12-13T08:34:53.705Z,8.23
2018-12-13T08:37:21.197Z,8.57
2018-12-13T08:39:48.693Z,7.47
2018-12-13T08:42:16.189Z,9.33
2018-12-13T08:44:43.682Z,8.03
2018-12-13T08:47:11.185Z,6.37
2018-12-13T08:49:38.683Z,7.23
2018-12-13T08:52:06.174Z,6.90
2018-12-13T08:54:33.669Z,6.63
2018-12-13T08:57:01.161Z,6.47
2018-12-13T08:59:28.665Z,8.90
2018-12-13T09:01:56.163Z,6.47
2018-12-13T09:04:23.656Z,9.70
2018-12-13T09:06:51.151Z,5.83
2018-12-13T09:09:18.642Z,6.23
2018-12-13T09:11:46.133Z,7.73
2018-12-13T09:14:13.629Z,7.33
2018-12-13T09:16:41.122Z,7.87
2018-12-13T09:19:08.629Z,6.57
2018-12-13T09:21:36.126Z,7.20
2018-12-13T09:24:03.624Z,7.83
2018-12-13T09:26:31.325Z,6.60
2018-12-13T09:28:58.822Z,8.17
2018-12-13T09:31:26.328Z,7.67
2018-12-13T09:33:53.829Z,7.17
2018-12-13T09:36:21.326Z,8.10
2018-12-13T09:38:48.821Z,7.50
2018-12-13T09:41:16.317Z,6.63
2018-12-13T09:43:43.817Z,7.20
2018-12-13T09:46:11.307Z,7.60
2018-12-13T09:48:38.801Z,6.93
2018-12-13T09:51:06.298Z,7.33
2018-12-13T09:53:33.790Z,7.70
2018-12-13T09:56:01.283Z,6.30
2018-12-13T09:58:28.780Z,7.33
2018-12-13T10:00:56.270Z,8.13
2018-12-13T10:03:23.764Z,8.20
2018-12-13T10:05:51.579Z,8.57
2018-12-13T10:08:19.073Z,8.13
2018-12-13T10:10:47.050Z,7.20
2018-12-13T10:13:14.553Z,8.10
2018-12-13T10:15:42.045Z,9.07
2018-12-13T10:18:09.542Z,7.27
2018-12-13T10:20:37.338Z,6.90
2018-12-13T10:23:05.101Z,7.97
2018-12-13T10:25:32.604Z,8.37
2018-12-13T10:28:00.103Z,9.17
2018-12-13T10:30:27.602Z,10.40
2018-12-13T10:32:55.099Z,9.13
2018-12-13T10:35:22.594Z,9.00
2018-12-13T10:37:50.098Z,9.33
2018-12-13T10:40:17.594Z,10.20
2018-12-13T10:42:45.089Z,9.03
2018-12-13T10:45:12.715Z,8.50
2018-12-13T10:47:40.220Z,8.83
2018-12-13T10:50:07.713Z,8.43
2018-12-13T10:52:35.210Z,8.37
2018-12-13T10:55:02.705Z,8.83
2018-12-13T10:57:30.201Z,8.83
2018-12-13T10:59:57.694Z,8.87
2018-12-13T11:02:30.745Z,9.27
2018-12-13T11:04:58.237Z,8.43
2018-12-13T11:07:25.736Z,8.47
2018-12-13T11:09:53.225Z,8.90
2018-12-13T11:12:20.716Z,8.93
2018-12-13T11:14:48.325Z,9.83
2018-12-13T11:17:15.822Z,9.00
2018-12-13T11:19:43.309Z,8.87
2018-12-13T11:22:10.810Z,9.10
2018-12-13T11:24:38.309Z,9.07
2018-12-13T11:27:19.341Z,10.07
2018-12-13T11:29:58.783Z,9.67
2018-12-13T11:32:26.279Z,8.87
2018-12-13T11:34:53.774Z,8.20
2018-12-13T11:37:21.269Z,8.10
2018-12-13T11:39:48.758Z,8.53
2018-12-13T11:42:16.253Z,9.57
2018-12-13T11:44:43.751Z,7.33
2018-12-13T11:47:11.242Z,9.07
2018-12-13T11:49:38.737Z,8.70
2018-12-13T11:52:06.230Z,8.53
2018-12-13T11:54:34.674Z,7.60
2018-12-13T11:57:02.170Z,8.20
2018-12-13T11:59:29.666Z,9.30
2018-12-13T12:01:57.158Z,9.40
2018-12-13T12:04:24.653Z,8.00
2018-12-13T12:06:52.149Z,9.70
2018-12-13T12:09:19.646Z,9.47
2018-12-13T12:11:47.138Z,9.20
2018-12-13T12:14:14.625Z,8.73
2018-12-13T12:16:42.121Z,8.50
2018-12-13T12:19:09.613Z,8.27
2018-12-13T12:21:37.111Z,9.10
2018-12-13T12:24:04.719Z,8.80
2018-12-13T12:26:32.213Z,8.67
2018-12-13T12:28:59.701Z,8.00
2018-12-13T12:31:27.193Z,9.03
2018-12-13T12:33:54.697Z,8.33
2018-12-13T12:36:22.189Z,10.00
2018-12-13T12:38:49.677Z,9.30
2018-12-13T12:41:17.165Z,8.20
2018-12-13T12:43:44.653Z,8.30
2018-12-13T12:46:12.149Z,8.70
2018-12-13T12:48:39.639Z,8.70
2018-12-13T12:51:07.132Z,8.70
2018-12-13T12:53:34.625Z,8.90
2018-12-13T12:56:02.117Z,7.93
2018-12-13T12:58:29.729Z,9.00
2018-12-13T13:00:57.231Z,9.97
2018-12-13T13:03:24.722Z,9.20
2018-12-13T13:05:52.217Z,8.47
2018-12-13T13:08:19.706Z,9.03
2018-12-13T13:10:47.211Z,8.87
2018-12-13T13:13:14.837Z,7.93
2018-12-13T13:15:42.337Z,8.07
2018-12-13T13:18:09.825Z,7.80
2018-12-13T13:20:37.320Z,16.13
2018-12-13T13:23:04.818Z,14.57
2018-12-13T13:25:32.312Z,50.67
2018-12-13T13:27:59.808Z,37.63
2018-12-13T13:30:27.309Z,27.70
2018-12-13T13:32:54.810Z,20.97
2018-12-13T13:35:22.792Z,20.27
2018-12-13T13:37:50.285Z,16.67
2018-12-13T13:40:17.789Z,16.13
2018-12-13T13:42:45.289Z,17.33
2018-12-13T13:45:12.975Z,16.53
2018-12-13T13:47:40.480Z,14.77
2018-12-13T13:50:07.982Z,14.33
2018-12-13T13:52:35.477Z,13.80
2018-12-13T13:55:02.977Z,18.17
2018-12-13T13:57:30.481Z,21.57
2018-12-13T13:59:58.389Z,20.77
2018-12-13T14:02:25.887Z,17.97
2018-12-13T14:04:53.386Z,17.37
2018-12-13T14:07:20.891Z,19.67
2018-12-13T14:09:48.390Z,18.43
2018-12-13T14:12:15.886Z,22.37
2018-12-13T14:14:43.381Z,23.17
2018-12-13T14:17:10.881Z,20.33
2018-12-13T14:19:38.389Z,24.07
2018-12-13T14:22:05.996Z,21.30
2018-12-13T14:24:33.505Z,23.17
2018-12-13T14:27:01.011Z,24.70
2018-12-13T14:29:28.505Z,21.30
2018-12-13T14:31:56.001Z,15.07
2018-12-13T14:34:23.504Z,125.47
2018-12-13T14:36:51.008Z,203.17
2018-12-13T14:39:18.517Z,311.10
2018-12-13T14:41:46.024Z,177.97
2018-12-13T14:44:13.522Z,118.13
2018-12-13T14:46:41.018Z,64.80
2018-12-13T14:49:08.524Z,63.90
2018-12-13T14:51:36.026Z,52.67
2018-12-13T14:54:03.522Z,58.47
2018-12-13T14:56:31.023Z,68.10
2018-12-13T14:58:58.516Z,56.37
2018-12-13T15:01:26.013Z,56.30
2018-12-13T15:03:53.517Z,53.07
2018-12-13T15:06:21.441Z,44.00
2018-12-13T15:08:48.938Z,41.07
2018-12-13T15:11:16.440Z,37.00
2018-12-13T15:13:43.945Z,51.67
2018-12-13T15:16:11.445Z,35.17
2018-12-13T15:18:38.945Z,26.73
2018-12-13T15:21:06.446Z,26.30
2018-12-13T15:23:33.943Z,28.23
2018-12-13T15:26:01.445Z,34.10
2018-12-13T15:28:28.945Z,26.30
2018-12-13T15:30:56.449Z,30.43
2018-12-13T15:33:23.945Z,28.53
2018-12-13T15:35:51.449Z,31.87
2018-12-13T15:38:18.949Z,42.20
2018-12-13T15:40:46.445Z,99.37
2018-12-13T15:43:13.948Z,214.80
2018-12-13T15:45:41.455Z,66.27
2018-12-13T15:48:08.949Z,69.67
2018-12-13T15:50:36.900Z,85.27
2018-12-13T15:53:04.416Z,95.20
2018-12-13T15:55:31.921Z,74.97
2018-12-13T15:57:59.421Z,69.80
2018-12-13T16:00:26.918Z,56.90
2018-12-13T16:02:54.417Z,53.77
2018-12-13T16:05:21.915Z,56.20
2018-12-13T16:07:49.478Z,61.20
2018-12-13T16:10:17.037Z,51.90
2018-12-13T16:12:44.537Z,41.07
2018-12-13T16:15:12.034Z,49.53
2018-12-13T16:17:39.531Z,37.17
2018-12-13T16:20:07.028Z,50.17
2018-12-13T16:22:34.527Z,44.87
2018-12-13T16:25:02.021Z,27.37
2018-12-13T16:27:29.521Z,32.37
2018-12-13T16:29:57.505Z,37.97
2018-12-13T16:32:25.001Z,32.70
2018-12-13T16:34:52.507Z,35.80
2018-12-13T16:37:20.261Z,32.27
2018-12-13T16:39:47.763Z,33.90
2018-12-13T16:42:15.265Z,28.80
2018-12-13T16:44:42.760Z,29.90
2018-12-13T16:47:10.260Z,27.07
2018-12-13T16:49:37.757Z,26.37
2018-12-13T16:52:05.258Z,26.43
2018-12-13T16:54:32.762Z,24.13
2018-12-13T16:57:00.257Z,23.67
2018-12-13T16:59:27.753Z,23.17
2018-12-13T17:01:55.254Z,18.33
2018-12-13T17:04:22.749Z,24.67
2018-12-13T17:06:50.250Z,22.00
2018-12-13T17:09:17.749Z,21.50
2018-12-13T17:11:45.254Z,23.77
2018-12-13T17:14:12.749Z,24.53
2018-12-13T17:16:40.246Z,18.77
2018-12-13T17:19:07.745Z,27.07
2018-12-13T17:21:35.246Z,28.20
2018-12-13T17:24:02.745Z,24.63
2018-12-13T17:26:30.246Z,18.10
2018-12-13T17:28:57.741Z,17.23
2018-12-13T17:31:25.245Z,19.67
2018-12-13T17:33:52.995Z,17.57
2018-12-13T17:36:20.492Z,17.20
2018-12-13T17:38:47.989Z,16.40
2018-12-13T17:41:15.484Z,16.97
2018-12-13T17:43:43.113Z,17.17
2018-12-13T17:46:10.606Z,15.10
2018-12-13T17:48:38.106Z,15.53
2018-12-13T17:51:05.604Z,13.17
2018-12-13T17:53:33.102Z,15.83
2018-12-13T17:56:00.602Z,13.80
2018-12-13T17:58:28.100Z,17.07
2018-12-13T18:00:55.597Z,14.67
2018-12-13T18:03:23.108Z,16.90
2018-12-13T18:05:50.612Z,17.67
2018-12-13T18:08:18.106Z,15.80
2018-12-13T18:10:45.605Z,14.77
2018-12-13T18:13:13.109Z,15.27
2018-12-13T18:15:40.610Z,16.70
2018-12-13T18:18:08.240Z,13.37
2018-12-13T18:20:35.740Z,14.50
2018-12-13T18:23:03.246Z,14.03
2018-12-13T18:25:30.747Z,18.07
2018-12-13T18:27:58.245Z,15.17
2018-12-13T18:30:26.026Z,16.47
2018-12-13T18:32:53.792Z,13.37
2018-12-13T18:35:21.289Z,13.27
2018-12-13T18:37:48.791Z,13.47
2018-12-13T18:40:16.288Z,15.73
2018-12-13T18:42:43.789Z,15.43
2018-12-13T18:45:11.286Z,16.80
2018-12-13T18:47:38.786Z,14.80
2018-12-13T18:50:06.367Z,16.07
2018-12-13T18:52:33.866Z,14.67
2018-12-13T18:55:01.368Z,12.57
2018-12-13T18:57:28.865Z,14.60
2018-12-13T18:59:56.362Z,14.33
2018-12-13T19:02:23.864Z,14.53
2018-12-13T19:04:51.370Z,14.90
2018-12-13T19:07:18.869Z,14.00
2018-12-13T19:09:46.370Z,16.70
2018-12-13T19:12:13.865Z,12.47
2018-12-13T19:14:41.365Z,15.00
2018-12-13T19:17:08.865Z,13.60
2018-12-13T19:19:36.490Z,17.27
2018-12-13T19:22:03.987Z,14.90
2018-12-13T19:24:31.481Z,13.93
2018-12-13T19:26:58.981Z,14.77
2018-12-13T19:29:26.481Z,13.13
2018-12-13T19:31:54.125Z,13.23
2018-12-13T19:34:21.714Z,13.43
2018-12-13T19:36:49.245Z,15.00
2018-12-13T19:39:16.738Z,12.63
2018-12-13T19:41:44.234Z,15.53
2018-12-13T19:44:11.730Z,14.43
2018-12-13T19:46:39.226Z,14.83
2018-12-13T19:49:06.722Z,15.70
2018-12-13T19:51:34.221Z,13.87
2018-12-13T19:54:01.716Z,14.03
2018-12-13T19:56:29.223Z,15.33
2018-12-13T19:58:56.727Z,14.77
2018-12-13T20:01:24.348Z,16.17
2018-12-13T20:03:51.849Z,14.37
2018-12-13T20:06:19.346Z,13.87
2018-12-13T20:08:46.861Z,14.50
2018-12-13T20:11:15.323Z,16.50
2018-12-13T20:13:42.828Z,14.00
2018-12-13T20:16:10.468Z,17.43
2018-12-13T20:18:37.975Z,14.67
2018-12-13T20:21:05.813Z,15.30
2018-12-13T20:23:33.346Z,17.30
2018-12-13T20:26:00.846Z,14.77
2018-12-13T20:28:28.459Z,14.50
2018-12-13T20:30:55.962Z,16.07
2018-12-13T20:33:23.461Z,14.27
2018-12-13T20:35:50.958Z,16.13
2018-12-13T20:38:18.465Z,16.00
2018-12-13T20:40:45.972Z,14.90
2018-12-13T20:43:13.481Z,15.37
2018-12-13T20:45:40.978Z,17.43
2018-12-13T20:48:08.477Z,16.10
2018-12-13T20:50:36.061Z,16.53
2018-12-13T20:53:03.558Z,15.03
2018-12-13T20:55:31.057Z,14.93
2018-12-13T20:57:58.554Z,15.83
2018-12-13T21:00:26.049Z,15.83
2018-12-13T21:02:53.551Z,17.07
2018-12-13T21:05:21.050Z,17.00
2018-12-13T21:07:48.554Z,15.20
2018-12-13T21:10:16.059Z,16.47
2018-12-13T21:12:43.556Z,15.83
2018-12-13T21:15:11.053Z,14.17
2018-12-13T21:17:38.549Z,17.13
2018-12-13T21:20:06.046Z,14.87
2018-12-13T21:22:33.541Z,15.27
2018-12-13T21:25:01.038Z,15.17
2018-12-13T21:27:28.980Z,17.10
2018-12-13T21:29:56.937Z,15.67
2018-12-13T21:32:24.438Z,17.03
2018-12-13T21:34:51.938Z,16.10
2018-12-13T21:37:19.434Z,15.77
2018-12-13T21:39:46.934Z,17.07
2018-12-13T21:42:14.429Z,15.53
2018-12-13T21:44:41.926Z,15.03
2018-12-13T21:47:09.475Z,14.90
2018-12-13T21:49:37.038Z,13.77
2018-12-13T21:52:04.544Z,13.33
2018-12-13T21:54:32.046Z,16.57
2018-12-13T21:56:59.925Z,15.73
2018-12-13T21:59:27.425Z,13.60
2018-12-13T22:01:54.925Z,14.07
2018-12-13T22:04:22.429Z,17.33
2018-12-13T22:06:49.938Z,13.47
2018-12-13T22:09:17.435Z,14.43
2018-12-13T22:11:45.008Z,14.07
2018-12-13T22:14:12.506Z,16.73
2018-12-13T22:16:40.005Z,15.03
2018-12-13T22:19:07.500Z,16.70
2018-12-13T22:21:35.001Z,16.03
2018-12-13T22:24:02.501Z,15.27
2018-12-13T22:26:30.000Z,17.40
2018-12-13T22:28:57.497Z,16.00
2018-12-13T22:31:25.005Z,14.93
2018-12-13T22:33:52.500Z,14.00
2018-12-13T22:36:19.997Z,13.17
2018-12-13T22:38:47.512Z,14.53
2018-12-13T22:41:15.010Z,14.87
2018-12-13T22:43:42.510Z,17.33
2018-12-13T22:46:10.017Z,14.97
2018-12-13T22:48:37.525Z,14.90
2018-12-13T22:51:05.029Z,14.43
2018-12-13T22:53:32.645Z,16.00
2018-12-13T22:56:00.146Z,17.30
2018-12-13T22:58:27.650Z,14.73
2018-12-13T23:00:55.161Z,14.77
2018-12-13T23:03:22.661Z,18.30
2018-12-13T23:05:50.169Z,16.13
2018-12-13T23:08:17.664Z,14.57
2018-12-13T23:10:45.165Z,16.23
2018-12-13T23:13:12.662Z,16.40
2018-12-13T23:15:40.159Z,17.87
2018-12-13T23:18:07.653Z,15.83
2018-12-13T23:20:35.156Z,14.37
2018-12-13T23:23:02.657Z,16.73
2018-12-13T23:25:30.154Z,16.87
2018-12-13T23:27:57.656Z,16.67
2018-12-13T23:30:25.149Z,17.40
2018-12-13T23:32:52.648Z,17.17
2018-12-13T23:35:20.254Z,16.27
2018-12-13T23:37:47.755Z,14.23
2018-12-13T23:40:15.253Z,16.30
2018-12-13T23:42:42.753Z,16.93
2018-12-13T23:45:10.250Z,14.20
2018-12-13T23:47:38.047Z,14.10
2018-12-13T23:50:05.624Z,13.27
2018-12-13T23:52:33.122Z,15.93
2018-12-13T23:55:00.621Z,16.47
2018-12-13T23:57:28.114Z,17.83
2018-12-13T23:59:56.113Z,16.50
